CYMTCYMO

Guest
Details From CYMT - CHAPAIS
To CYMO - MOOSONEE
Flight Number -
Tags generated
Created
Modified
Stats Distance 303 nm / 561 km
Max Altitude 34,000 ft / 10,363 m
Waypoints 5
Social Downloads 0
Likes 0
Share VATSIM

Download

Looking for another format? Having issues loading an existing format? Contact us
Advertisement - Login to hide

Notes

Basic altitude profile: - Ascent Rate: 2500ft/min - Ascent Speed: 250kts - Cruise Altitude: 35000ft - Cruise Speed: 420kts - Descent Rate: 1500ft/min - Descent Speed: 250kts Options: - Use NATs: yes - Use PACOTS: yes - Use low airways: yes - Use high airways: yes

Route

CYMT ROUND VANSI YKQ CYMO

ID Type Via Altitude Latitude Longitude Leg Dist Tot Dist Heading (true) Name
O CYMT APT - 0 ft / 0 m 49.77186˚ -74.52797˚ - 0 nm - CHAPAIS
ROUND FIX - 32,400 ft / 9,876 m 51.25000˚ -75.04667˚ 90 nm 90 nm 348° / 347° -
VANSI FIX - 34,000 ft / 10,363 m 51.49167˚ -76.00000˚ 38 nm 129 nm 292° / 292° -
YKQ NDB - 14,100 ft / 4,298 m 51.48706˚ -78.74486˚ 102 nm 232 nm 271° / 269° WASKAGANISH NDB
O CYMO APT - 0 ft / 0 m 51.29210˚ -80.60828˚ 70 nm 302 nm 261° / 260° MOOSONEE

Altitude Profile

Advertisement - Login to hide

Weather


0- 5 10 15 20 25 30 35+ Temperature / ° C

Clouds and Precipitation
Forecast for 2018-05-24 00:00 UTC. Updated 3 hours ago

Ground ~20,000 ft ~40,000 ft Winds

CYMT

Details ICAO CYMT (YMT)
Name CHAPAIS
Region Canada
Timezone America/Montreal (UTC-4.0)
Stats Elevation 1,270 ft / 387 m (AMSL)
Location 49.771862° -74.527972°
Runways 1
Magnetic Variation 15.414° W

METAR

CYMT 240200Z AUTO 31003KT 9SM CLR 04/M05 A3007 RMK SLP199

Decode

TAF

TAF CYMT 231739Z 2318/2324 34012KT P6SM SCT030 BKN100 BECMG 2322/2324 34005KT RMK FCST BASED ON AUTO OBS. NXT FCST WILL BE ISSUED AT 241145Z

Decode

Departure Runways

ID Width Length Bearing (true) Bearing (mag) Surface Threshold Offset Overrun Length
05 150 ft / 46 m 6,491 ft / 1,979 m 28.21° 43.62° Asphalt 0 ft / 0 m 0 ft / 0 m
23 150 ft / 46 m 6,491 ft / 1,979 m 208.22° 223.63° Asphalt 0 ft / 0 m 0 ft / 0 m

CYMO

Details ICAO CYMO (YMO)
Name MOOSONEE
Region Canada
Timezone America/Toronto (UTC-4.0)
Stats Elevation 30 ft / 9 m (AMSL)
Location 51.292095° -80.608276°
Runways 2
Magnetic Variation 12.081° W

METAR

CYMO 240238Z AUTO 11006KT 9SM FEW090 OVC110 00/M03 A3016 RMK SLP216

Decode

TAF

TAF CYMO 232338Z 2400/2412 09010KT P6SM BKN100 BECMG 2404/2406 13005KT FM241100 21010KT P6SM BKN100 RMK FCST BASED ON AUTO OBS. NXT FCST BY 240600Z

Decode

Destination Runways

ID Width Length Bearing (true) Bearing (mag) Surface Threshold Offset Overrun Length
06 100 ft / 30 m 4,004 ft / 1,220 m 43.12° 55.20° Asphalt 0 ft / 0 m 0 ft / 0 m
14 100 ft / 30 m 3,508 ft / 1,069 m 127.35° 139.43° Dirt 0 ft / 0 m 0 ft / 0 m
24 100 ft / 30 m 4,004 ft / 1,220 m 223.13° 235.21° Asphalt 0 ft / 0 m 0 ft / 0 m
32 100 ft / 30 m 3,508 ft / 1,069 m 307.35° 319.43° Dirt 0 ft / 0 m 0 ft / 0 m